createdAt,value
2018-01-03T00:02:16.951Z,96488.59
2018-01-03T00:04:44.578Z,96466.16
2018-01-03T00:07:12.227Z,96474.55
2018-01-03T00:09:40.003Z,96476.99
2018-01-03T00:12:07.548Z,96455.81
2018-01-03T00:14:35.110Z,96451.04
2018-01-03T00:17:02.973Z,96458.23
2018-01-03T00:19:30.541Z,96439.54
2018-01-03T00:21:58.093Z,96427.67
2018-01-03T00:24:25.661Z,96424.56
2018-01-03T00:26:53.211Z,96422.73
2018-01-03T00:29:20.762Z,96422.58
2018-01-03T00:31:48.321Z,96419.02
2018-01-03T00:34:16.030Z,96422.48
2018-01-03T00:36:43.573Z,96410.87
2018-01-03T00:39:11.156Z,96406.57
2018-01-03T00:41:38.689Z,96396.27
2018-01-03T00:44:06.227Z,96392.47
2018-01-03T00:46:34.006Z,96386.17
2018-01-03T00:49:01.553Z,96374.36
2018-01-03T00:51:29.109Z,96355.84
2018-01-03T00:53:56.978Z,96347.23
2018-01-03T00:56:24.534Z,96345.09
2018-01-03T00:58:52.087Z,96340.69
2018-01-03T01:01:19.654Z,96340.01
2018-01-03T01:03:47.212Z,96339.62
2018-01-03T01:06:14.758Z,96335.06
2018-01-03T01:08:42.365Z,96336.11
2018-01-03T01:11:09.908Z,96322.70
2018-01-03T01:13:37.450Z,96321.41
2018-01-03T01:16:05.050Z,96319.15
2018-01-03T01:18:32.598Z,96324.16
2018-01-03T01:21:00.134Z,96323.87
2018-01-03T01:23:27.864Z,96328.42
2018-01-03T01:25:55.394Z,96328.75
2018-01-03T01:28:22.925Z,96325.79
2018-01-03T01:30:50.976Z,96322.86
2018-01-03T01:33:18.519Z,96317.69
2018-01-03T01:35:46.095Z,96326.34
2018-01-03T01:38:13.702Z,96320.86
2018-01-03T01:40:41.238Z,96313.00
2018-01-03T01:43:08.774Z,96307.64
2018-01-03T01:45:36.341Z,96306.63
2018-01-03T01:48:03.877Z,96276.31
2018-01-03T01:50:31.406Z,96235.70
2018-01-03T01:52:59.214Z,96233.95
2018-01-03T01:55:26.772Z,96243.04
2018-01-03T01:57:55.251Z,96243.02
2018-01-03T02:00:22.838Z,96242.76
2018-01-03T02:02:50.373Z,96229.78
2018-01-03T02:05:17.923Z,96230.72
2018-01-03T02:07:45.695Z,96225.42
2018-01-03T02:10:13.251Z,96227.09
2018-01-03T02:12:40.815Z,96207.57
2018-01-03T02:15:08.923Z,96202.40
2018-01-03T02:17:36.651Z,96190.47
2018-01-03T02:20:04.616Z,96185.11
2018-01-03T02:22:33.199Z,96173.92
2018-01-03T02:25:00.759Z,96171.86
2018-01-03T02:27:28.320Z,96168.74
2018-01-03T02:29:56.904Z,96161.05
2018-01-03T02:32:24.449Z,96157.51
2018-01-03T02:34:52.002Z,96139.69
2018-01-03T02:37:19.578Z,96120.75
2018-01-03T02:39:47.139Z,96102.46
2018-01-03T02:42:14.800Z,96072.14
2018-01-03T02:44:42.769Z,96051.41
2018-01-03T02:47:10.374Z,96037.20
2018-01-03T02:49:37.912Z,96026.31
2018-01-03T02:52:05.486Z,96020.56
2018-01-03T02:54:33.029Z,96011.55
2018-01-03T02:57:00.561Z,96004.86
2018-01-03T02:59:28.331Z,95992.81
2018-01-03T03:01:55.887Z,95989.52
2018-01-03T03:04:23.435Z,95975.77
2018-01-03T03:06:51.312Z,95950.97
2018-01-03T03:09:18.873Z,95923.18
2018-01-03T03:11:46.413Z,95931.81
2018-01-03T03:14:14.297Z,95935.52
2018-01-03T03:16:41.853Z,95922.64
2018-01-03T03:19:09.401Z,95923.21
2018-01-03T03:21:37.177Z,95894.91
2018-01-03T03:24:04.738Z,95873.22
2018-01-03T03:26:32.296Z,95851.34
2018-01-03T03:28:59.878Z,95837.77
2018-01-03T03:31:27.405Z,95828.32
2018-01-03T03:33:55.278Z,95806.30
2018-01-03T03:36:23.161Z,95787.02
2018-01-03T03:38:50.698Z,95777.13
2018-01-03T03:41:18.267Z,95783.45
2018-01-03T03:43:46.091Z,95762.73
2018-01-03T03:46:13.629Z,95763.48
2018-01-03T03:48:41.178Z,95737.11
2018-01-03T03:51:08.912Z,95716.95
2018-01-03T03:53:36.470Z,95717.22
2018-01-03T03:56:04.017Z,95707.70
2018-01-03T03:58:31.896Z,95699.16
2018-01-03T04:00:59.456Z,95675.82
2018-01-03T04:03:27.005Z,95673.52
2018-01-03T04:05:54.582Z,95652.09
2018-01-03T04:08:22.117Z,95637.86
2018-01-03T04:10:49.655Z,95644.66
2018-01-03T04:13:17.455Z,95649.36
2018-01-03T04:15:45.029Z,95638.30
2018-01-03T04:18:12.578Z,95617.48
2018-01-03T04:20:40.353Z,95611.16
2018-01-03T04:23:07.905Z,95610.76
2018-01-03T04:25:35.456Z,95596.05
2018-01-03T04:28:03.116Z,95553.83
2018-01-03T04:30:30.661Z,95522.17
2018-01-03T04:32:58.226Z,95523.85
2018-01-03T04:35:26.003Z,95501.98
2018-01-03T04:37:53.556Z,95461.32
2018-01-03T04:40:21.106Z,95463.70
2018-01-03T04:42:48.796Z,95436.69
2018-01-03T04:45:16.336Z,95430.39
2018-01-03T04:47:43.897Z,95445.66
2018-01-03T04:50:11.481Z,95423.17
2018-01-03T04:52:39.017Z,95406.77
2018-01-03T04:55:06.563Z,95429.94
2018-01-03T04:57:34.237Z,95432.40
2018-01-03T05:00:01.795Z,95391.58
2018-01-03T05:02:29.354Z,95392.08
2018-01-03T05:04:56.920Z,95409.11
2018-01-03T05:07:24.473Z,95370.80
2018-01-03T05:09:52.088Z,95370.94
2018-01-03T05:12:19.677Z,95356.57
2018-01-03T05:14:47.226Z,95386.47
2018-01-03T05:17:14.811Z,95364.49
2018-01-03T05:19:42.404Z,95319.53
2018-01-03T05:22:09.951Z,95306.31
2018-01-03T05:24:37.496Z,95268.56
2018-01-03T05:27:05.077Z,95255.38
2018-01-03T05:29:32.625Z,95225.03
2018-01-03T05:32:00.165Z,95217.73
2018-01-03T05:34:27.761Z,95216.84
2018-01-03T05:36:55.305Z,95197.85
2018-01-03T05:39:22.846Z,95206.02
2018-01-03T05:41:50.605Z,95156.86
2018-01-03T05:44:18.149Z,95133.05
2018-01-03T05:46:45.728Z,95142.84
2018-01-03T05:49:13.309Z,95114.50
2018-01-03T05:51:40.856Z,95104.80
2018-01-03T05:54:08.407Z,95100.59
2018-01-03T05:56:36.372Z,95085.39
2018-01-03T05:59:03.931Z,95087.97
2018-01-03T06:01:31.492Z,95080.12
2018-01-03T06:03:59.355Z,95092.27
2018-01-03T06:06:26.920Z,95080.44
2018-01-03T06:08:54.473Z,95095.05
2018-01-03T06:11:22.734Z,95066.48
2018-01-03T06:13:50.281Z,95064.09
2018-01-03T06:16:17.868Z,95036.60
2018-01-03T06:18:45.629Z,95027.00
2018-01-03T06:21:13.204Z,95017.04
2018-01-03T06:23:40.749Z,95046.63
2018-01-03T06:26:08.721Z,95031.09
2018-01-03T06:28:36.279Z,94992.25
2018-01-03T06:31:03.833Z,94995.48
2018-01-03T06:33:31.701Z,94984.58
2018-01-03T06:35:59.250Z,95003.22
2018-01-03T06:38:26.793Z,95020.78
2018-01-03T06:40:54.505Z,95020.45
2018-01-03T06:43:22.042Z,94949.63
2018-01-03T06:45:49.603Z,94958.80
2018-01-03T06:48:17.366Z,94951.14
2018-01-03T06:50:44.910Z,94956.58
2018-01-03T06:53:12.445Z,94991.67
2018-01-03T06:55:40.158Z,94947.23
2018-01-03T06:58:07.686Z,94990.80
2018-01-03T07:00:35.263Z,94967.89
2018-01-03T07:03:04.049Z,94946.70
2018-01-03T07:05:31.598Z,94919.69
2018-01-03T07:07:59.168Z,94941.50
2018-01-03T07:10:27.137Z,94950.95
2018-01-03T07:12:54.691Z,94939.81
2018-01-03T07:15:22.255Z,94957.24
2018-01-03T07:17:50.222Z,94954.05
2018-01-03T07:20:17.783Z,94937.77
2018-01-03T07:22:45.373Z,94986.98
2018-01-03T07:25:13.190Z,95173.66
2018-01-03T07:27:40.742Z,95230.67
2018-01-03T07:30:08.466Z,95245.23
2018-01-03T07:32:36.428Z,95213.87
2018-01-03T07:35:04.990Z,95267.36
2018-01-03T07:37:32.546Z,95255.81
2018-01-03T07:40:00.187Z,95261.92
2018-01-03T07:42:27.759Z,95219.77
2018-01-03T07:44:55.356Z,95249.19
2018-01-03T07:47:22.926Z,95255.50
2018-01-03T07:49:50.474Z,95249.18
2018-01-03T07:52:18.055Z,95264.83
2018-01-03T07:54:48.113Z,95264.31
2018-01-03T07:57:17.259Z,95227.77
2018-01-03T07:59:45.349Z,95270.78
2018-01-03T08:02:13.665Z,95286.56
2018-01-03T08:04:41.205Z,95300.80
2018-01-03T08:07:08.891Z,95305.63
2018-01-03T08:09:36.444Z,95286.77
2018-01-03T08:12:04.041Z,95269.72
2018-01-03T08:14:31.757Z,95229.27
2018-01-03T08:17:00.350Z,95208.20
2018-01-03T08:19:29.133Z,95264.36
2018-01-03T08:21:56.897Z,95307.80
2018-01-03T08:24:24.461Z,95341.56
2018-01-03T08:26:52.796Z,95372.85
2018-01-03T08:29:20.600Z,95359.36
2018-01-03T08:31:48.260Z,95379.83
2018-01-03T08:34:16.132Z,95374.72
2018-01-03T08:36:43.924Z,95328.26
2018-01-03T08:39:11.554Z,95313.87
2018-01-03T08:41:40.139Z,95292.81
2018-01-03T08:44:07.917Z,95304.41
2018-01-03T08:46:35.455Z,95325.55
2018-01-03T08:49:03.019Z,95356.05
2018-01-03T08:51:30.626Z,95342.55
2018-01-03T08:53:58.174Z,95366.28
2018-01-03T08:56:25.725Z,95372.59
2018-01-03T08:58:53.457Z,95329.39
2018-01-03T09:01:21.020Z,95345.84
2018-01-03T09:03:48.579Z,95329.00
2018-01-03T09:06:16.567Z,95300.79
2018-01-03T09:08:44.618Z,95298.79
2018-01-03T09:11:12.177Z,95297.87
2018-01-03T09:13:39.966Z,95286.16
2018-01-03T09:16:07.502Z,95319.72
2018-01-03T09:18:35.046Z,95287.03
2018-01-03T09:21:02.621Z,95297.34
2018-01-03T09:23:30.188Z,95293.81
2018-01-03T09:25:57.730Z,95285.16
2018-01-03T09:28:25.395Z,95292.45
2018-01-03T09:30:52.958Z,95303.42
2018-01-03T09:33:20.523Z,95278.89
2018-01-03T09:35:48.303Z,95326.27
2018-01-03T09:38:15.842Z,95414.50
2018-01-03T09:40:43.603Z,95408.67
2018-01-03T09:43:11.575Z,95400.02
2018-01-03T09:45:39.131Z,95434.95
2018-01-03T09:48:06.691Z,95428.55
2018-01-03T09:50:34.287Z,95425.46
2018-01-03T09:53:01.831Z,95417.06
2018-01-03T09:55:29.370Z,95414.73
2018-01-03T09:57:57.438Z,95396.77
2018-01-03T10:00:24.985Z,95401.33
2018-01-03T10:02:52.598Z,95364.80
2018-01-03T10:05:20.450Z,95403.18
2018-01-03T10:07:47.981Z,95393.66
2018-01-03T10:10:15.567Z,95428.59
2018-01-03T10:12:43.140Z,95466.48
2018-01-03T10:15:10.678Z,95501.52
2018-01-03T10:17:38.210Z,95512.42
2018-01-03T10:20:05.818Z,95540.50
2018-01-03T10:22:33.438Z,95547.38
2018-01-03T10:25:01.054Z,95546.72
2018-01-03T10:27:28.969Z,95510.98
2018-01-03T10:29:56.514Z,95475.02
2018-01-03T10:32:24.062Z,95478.55
2018-01-03T10:34:51.958Z,95472.30
2018-01-03T10:37:19.497Z,95495.36
2018-01-03T10:39:47.030Z,95542.94
2018-01-03T10:44:47.074Z,95576.33
2018-01-03T10:47:15.397Z,95602.45
2018-01-03T10:49:43.093Z,95585.22
2018-01-03T10:52:10.999Z,95580.17
2018-01-03T10:54:38.506Z,95569.62
2018-01-03T10:57:06.009Z,95591.05
2018-01-03T10:59:34.504Z,95601.52
2018-01-03T11:02:02.267Z,95602.19
2018-01-03T11:04:29.781Z,95607.63
2018-01-03T11:06:57.460Z,95614.53
2018-01-03T11:09:25.169Z,95607.86
2018-01-03T11:11:52.724Z,95629.48
2018-01-03T11:14:21.161Z,95621.68
2018-01-03T11:16:48.750Z,95611.06
2018-01-03T11:19:16.299Z,95586.23
2018-01-03T11:21:44.070Z,95576.92
2018-01-03T11:24:11.569Z,95569.12
2018-01-03T11:26:39.209Z,95587.64
2018-01-03T11:29:07.136Z,95598.38
2018-01-03T11:31:34.645Z,95574.63
2018-01-03T11:34:02.174Z,95601.34
2018-01-03T11:36:29.840Z,95587.23
2018-01-03T11:38:57.394Z,95603.30
2018-01-03T11:41:24.910Z,95631.20
2018-01-03T11:43:52.709Z,95639.92
2018-01-03T11:46:20.213Z,95630.31
2018-01-03T11:48:47.734Z,95637.44
2018-01-03T11:51:15.465Z,95677.20
2018-01-03T11:53:42.969Z,95688.40
2018-01-03T11:56:10.473Z,95696.08
2018-01-03T11:58:38.453Z,95718.94
2018-01-03T12:01:05.969Z,95725.84
2018-01-03T12:03:33.498Z,95745.80
2018-01-03T12:06:01.345Z,95762.56
2018-01-03T12:08:28.900Z,95752.34
2018-01-03T12:10:56.437Z,95740.46
2018-01-03T12:13:24.117Z,95756.03
2018-01-03T12:15:51.625Z,95731.45
2018-01-03T12:18:19.141Z,95757.19
2018-01-03T12:20:47.230Z,95740.62
2018-01-03T12:23:14.802Z,95756.02
2018-01-03T12:25:42.353Z,95770.00
2018-01-03T12:28:09.934Z,95758.37
2018-01-03T12:30:37.789Z,95760.48
2018-01-03T12:33:05.340Z,95751.61
2018-01-03T12:35:33.307Z,95755.09
2018-01-03T12:38:00.874Z,95776.95
2018-01-03T12:40:28.523Z,95775.75
2018-01-03T12:42:56.592Z,95776.63
2018-01-03T12:45:24.098Z,95781.73
2018-01-03T12:47:51.609Z,95805.63
2018-01-03T12:50:19.271Z,95800.48
2018-01-03T12:52:46.830Z,95796.92
2018-01-03T12:55:14.358Z,95799.07
2018-01-03T12:57:41.947Z,95815.69
2018-01-03T13:00:09.449Z,95805.28
2018-01-03T13:02:36.958Z,95815.52
2018-01-03T13:05:04.871Z,95800.11
2018-01-03T13:07:32.429Z,95833.16
2018-01-03T13:09:59.947Z,95834.39
2018-01-03T13:12:27.506Z,95842.88
2018-01-03T13:14:55.159Z,95860.94
2018-01-03T13:17:22.673Z,95870.52
2018-01-03T13:19:50.226Z,95868.50
2018-01-03T13:22:17.742Z,95862.95
2018-01-03T13:24:45.610Z,95863.41
2018-01-03T13:27:13.190Z,95870.39
2018-01-03T13:29:40.692Z,95900.22
2018-01-03T13:32:08.286Z,95909.46
2018-01-03T13:34:36.053Z,95897.60
2018-01-03T13:37:03.608Z,95878.48
2018-01-03T13:39:31.579Z,95901.82
2018-01-03T13:41:59.330Z,95949.09
2018-01-03T13:44:26.868Z,95930.12
2018-01-03T13:46:54.522Z,95943.36
2018-01-03T13:49:22.332Z,95927.52
2018-01-03T13:51:49.887Z,95935.04
2018-01-03T13:54:17.556Z,95939.06
2018-01-03T13:56:45.144Z,95944.92
2018-01-03T13:59:12.649Z,95936.17
2018-01-03T14:01:40.172Z,95932.85
2018-01-03T14:04:08.312Z,95950.80
2018-01-03T14:06:35.969Z,95959.09
2018-01-03T14:09:03.517Z,95942.81
2018-01-03T14:11:32.266Z,95957.08
2018-01-03T14:14:00.674Z,95952.08
2018-01-03T14:16:28.187Z,95951.59
2018-01-03T14:18:55.903Z,95963.31
2018-01-03T14:21:23.461Z,95960.77
2018-01-03T14:23:51.124Z,95963.94
2018-01-03T14:26:18.764Z,95965.30
2018-01-03T14:28:46.465Z,95953.13
2018-01-03T14:31:14.009Z,95962.20
2018-01-03T14:33:41.749Z,95970.44
2018-01-03T14:36:09.257Z,96000.65
2018-01-03T14:38:36.777Z,95991.55
2018-01-03T14:41:05.368Z,96006.11
2018-01-03T14:43:32.928Z,95998.31
2018-01-03T14:46:00.433Z,96007.15
2018-01-03T14:48:28.243Z,96019.66
2018-01-03T14:50:55.861Z,96016.09
2018-01-03T14:53:23.368Z,96020.64
2018-01-03T14:55:51.337Z,96022.28
2018-01-03T14:58:18.999Z,95989.56
2018-01-03T15:00:46.524Z,95992.76
2018-01-03T15:03:14.615Z,96022.55
2018-01-03T15:05:42.392Z,96034.42
2018-01-03T15:08:09.956Z,96026.41
2018-01-03T15:10:37.506Z,96060.70
2018-01-03T15:13:05.013Z,96074.37
2018-01-03T15:15:32.557Z,96052.23
2018-01-03T15:18:00.393Z,96072.04
2018-01-03T15:20:27.952Z,96074.48
2018-01-03T15:22:55.480Z,96068.13
2018-01-03T15:25:23.691Z,96073.21
2018-01-03T15:27:51.212Z,96079.42
2018-01-03T15:30:18.729Z,96085.48
2018-01-03T15:32:46.466Z,96092.83
2018-01-03T15:35:14.335Z,96093.31
2018-01-03T15:37:42.504Z,96097.07
2018-01-03T15:40:10.371Z,96080.16
2018-01-03T15:42:38.134Z,96086.80
2018-01-03T15:45:05.693Z,96067.89
2018-01-03T15:47:33.728Z,96085.46
2018-01-03T15:50:01.285Z,96093.38
2018-01-03T15:52:28.985Z,96117.30
2018-01-03T15:54:56.904Z,96134.77
2018-01-03T15:57:24.804Z,96135.22
2018-01-03T15:59:52.439Z,96150.64
2018-01-03T16:02:20.352Z,96152.52
2018-01-03T16:04:47.901Z,96185.35
2018-01-03T16:07:15.505Z,96172.23
2018-01-03T16:09:43.240Z,96190.23
2018-01-03T16:12:10.746Z,96184.03
2018-01-03T16:14:38.554Z,96186.19
2018-01-03T16:17:06.624Z,96184.56
2018-01-03T16:19:34.491Z,96177.33
2018-01-03T16:22:02.348Z,96176.77
2018-01-03T16:24:29.924Z,96162.22
2018-01-03T16:26:57.490Z,96172.98
2018-01-03T16:29:25.343Z,96171.77
2018-01-03T16:31:53.107Z,96171.47
2018-01-03T16:34:20.822Z,96170.42
2018-01-03T16:36:48.535Z,96155.82
2018-01-03T16:39:18.138Z,96144.10
2018-01-03T16:41:46.023Z,96145.74
2018-01-03T16:44:14.178Z,96152.82
2018-01-03T16:46:43.135Z,96164.05
2018-01-03T16:49:14.809Z,96140.84
2018-01-03T16:54:56.633Z,96142.44
2018-01-03T16:57:24.504Z,96149.33
2018-01-03T16:59:54.068Z,96156.09
2018-01-03T17:02:21.730Z,96148.72
2018-01-03T17:04:49.964Z,96161.98
2018-01-03T17:07:17.931Z,96142.16
2018-01-03T17:09:45.795Z,96140.79
2018-01-03T17:12:13.879Z,96153.20
2018-01-03T17:14:41.938Z,96143.95
2018-01-03T17:17:10.578Z,96153.67
2018-01-03T17:19:38.473Z,96164.35
2018-01-03T17:22:06.492Z,96174.96
2018-01-03T17:24:34.314Z,96183.80
2018-01-03T17:27:02.447Z,96170.45
2018-01-03T17:29:30.457Z,96173.72
2018-01-03T17:31:58.424Z,96181.19
2018-01-03T17:34:26.392Z,96182.86
2018-01-03T17:36:54.262Z,96179.31
2018-01-03T17:39:22.227Z,96172.30
2018-01-03T17:41:50.196Z,96166.17
2018-01-03T17:44:17.960Z,96187.30
2018-01-03T17:46:45.725Z,96186.23
2018-01-03T17:49:13.590Z,96192.00
2018-01-03T17:51:41.380Z,96191.03
2018-01-03T17:54:09.017Z,96206.39
2018-01-03T17:56:36.895Z,96200.03
2018-01-03T17:59:04.544Z,96198.84
2018-01-03T18:01:32.409Z,96205.43
2018-01-03T18:04:00.583Z,96205.95
2018-01-03T18:06:28.356Z,96197.28
2018-01-03T18:08:55.973Z,96198.17
2018-01-03T18:11:23.796Z,96197.69
2018-01-03T18:13:51.471Z,96196.70
2018-01-03T18:16:19.198Z,96209.56
2018-01-03T18:18:46.846Z,96200.25
2018-01-03T18:21:14.635Z,96201.37
2018-01-03T18:23:42.379Z,96194.45
2018-01-03T18:26:10.357Z,96202.65
2018-01-03T18:28:38.036Z,96199.98
2018-01-03T18:31:05.600Z,96216.61
2018-01-03T18:33:33.648Z,96199.81
2018-01-03T18:36:01.514Z,96206.95
2018-01-03T18:38:30.320Z,96203.34
2018-01-03T18:40:58.067Z,96185.92
2018-01-03T18:43:26.649Z,96209.48
2018-01-03T18:45:54.918Z,96219.52
2018-01-03T18:48:22.673Z,96218.06
2018-01-03T18:50:50.293Z,96211.88
2018-01-03T18:53:17.811Z,96217.47
2018-01-03T18:55:45.376Z,96210.36
2018-01-03T18:58:12.904Z,96216.37
2018-01-03T19:00:40.595Z,96202.19
2018-01-03T19:03:08.671Z,96210.56
2018-01-03T19:05:36.628Z,96205.46
2018-01-03T19:08:04.288Z,96207.26
2018-01-03T19:10:31.983Z,96210.14
2018-01-03T19:12:59.508Z,96210.02
2018-01-03T19:15:27.376Z,96219.10
2018-01-03T19:17:55.344Z,96210.59
2018-01-03T19:20:23.108Z,96205.53
2018-01-03T19:22:50.983Z,96213.66
2018-01-03T19:25:19.050Z,96214.81
2018-01-03T19:27:46.912Z,96222.70
2018-01-03T19:30:14.679Z,96213.37
2018-01-03T19:32:42.747Z,96231.97
2018-01-03T19:35:10.682Z,96245.70
2018-01-03T19:37:38.496Z,96236.84
2018-01-03T19:40:06.550Z,96233.03
2018-01-03T19:42:34.534Z,96232.50
2018-01-03T19:45:02.385Z,96236.03
2018-01-03T19:47:31.318Z,96232.59
2018-01-03T19:49:59.062Z,96219.28
2018-01-03T19:52:26.807Z,96237.27
2018-01-03T19:54:54.944Z,96238.59
2018-01-03T19:57:22.962Z,96238.43
2018-01-03T19:59:50.813Z,96238.34
2018-01-03T20:02:19.996Z,96241.08
2018-01-03T20:04:47.978Z,96226.74
2018-01-03T20:07:16.665Z,96227.84
2018-01-03T20:09:44.469Z,96228.31
2018-01-03T20:12:12.192Z,96238.22
2018-01-03T20:14:39.955Z,96235.86
2018-01-03T20:17:08.436Z,96233.27
2018-01-03T20:19:36.064Z,96239.25
2018-01-03T20:22:04.375Z,96227.30
2018-01-03T20:24:32.140Z,96224.77
2018-01-03T20:27:00.486Z,96219.02
2018-01-03T20:29:28.299Z,96218.84
2018-01-03T20:31:56.054Z,96228.37
2018-01-03T20:34:23.788Z,96234.98
2018-01-03T20:36:51.588Z,96234.63
2018-01-03T20:39:20.360Z,96234.13
2018-01-03T20:41:48.125Z,96247.05
2018-01-03T20:44:16.094Z,96240.44
2018-01-03T20:46:44.966Z,96239.05
2018-01-03T20:49:13.057Z,96231.53
2018-01-03T20:51:40.818Z,96230.23
2018-01-03T20:54:08.992Z,96234.05
2018-01-03T20:56:36.962Z,96240.20
2018-01-03T20:59:04.739Z,96229.92
2018-01-03T21:01:32.898Z,96245.20
2018-01-03T21:04:00.868Z,96241.46
2018-01-03T21:06:29.201Z,96250.36
2018-01-03T21:08:57.842Z,96266.84
2018-01-03T21:11:25.702Z,96265.97
2018-01-03T21:13:53.664Z,96241.97
2018-01-03T21:16:21.739Z,96247.05
2018-01-03T21:18:49.704Z,96238.47
2018-01-03T21:21:17.330Z,96236.83
2018-01-03T21:23:46.542Z,96250.47
2018-01-03T21:26:14.431Z,96233.88
2018-01-03T21:28:42.705Z,96226.04
2018-01-03T21:31:11.085Z,96236.14
2018-01-03T21:33:38.949Z,96238.73
2018-01-03T21:36:06.739Z,96238.64
2018-01-03T21:38:34.891Z,96234.58
2018-01-03T21:41:02.679Z,96232.53
2018-01-03T21:43:30.519Z,96225.80
2018-01-03T21:45:59.491Z,96235.17
2018-01-03T21:48:27.172Z,96242.44
2018-01-03T21:50:54.834Z,96234.41
2018-01-03T21:53:22.599Z,96225.84
2018-01-03T21:55:50.361Z,96222.63
2018-01-03T21:58:18.201Z,96207.66
2018-01-03T22:00:46.109Z,96218.98
2018-01-03T22:03:13.958Z,96234.88
2018-01-03T22:05:41.622Z,96247.52
2018-01-03T22:08:09.537Z,96247.52
2018-01-03T22:10:37.262Z,96232.11
2018-01-03T22:13:04.814Z,96207.23
2018-01-03T22:15:32.780Z,96227.67
2018-01-03T22:18:00.321Z,96225.59
2018-01-03T22:20:27.898Z,96228.61
2018-01-03T22:22:55.456Z,96227.86
2018-01-03T22:25:23.005Z,96256.70
2018-01-03T22:27:50.598Z,96232.44
2018-01-03T22:30:18.567Z,96256.89
2018-01-03T22:32:46.103Z,96253.11
2018-01-03T22:35:13.610Z,96247.82
2018-01-03T22:37:41.233Z,96249.06
2018-01-03T22:40:08.782Z,96247.34
2018-01-03T22:42:36.285Z,96239.45
2018-01-03T22:45:04.101Z,96222.29
2018-01-03T22:47:31.605Z,96228.35
2018-01-03T22:49:59.112Z,96219.91
2018-01-03T22:52:26.681Z,96224.81
2018-01-03T22:54:54.177Z,96215.55
2018-01-03T22:57:21.801Z,96235.22
2018-01-03T22:59:49.385Z,96218.23
2018-01-03T23:02:16.898Z,96212.28
2018-01-03T23:04:44.475Z,96205.87
2018-01-03T23:07:12.005Z,96200.08
2018-01-03T23:09:39.535Z,96190.06
2018-01-03T23:12:07.037Z,96187.61
2018-01-03T23:14:34.732Z,96208.66
2018-01-03T23:17:02.272Z,96197.62
2018-01-03T23:19:29.772Z,96206.83
2018-01-03T23:21:57.595Z,96199.84
2018-01-03T23:24:25.558Z,96211.15
2018-01-03T23:26:53.069Z,96214.50
2018-01-03T23:29:20.609Z,96216.92
2018-01-03T23:31:48.106Z,96209.07
2018-01-03T23:34:16.516Z,96208.94
2018-01-03T23:36:44.385Z,96202.88
2018-01-03T23:39:11.889Z,96209.94
2018-01-03T23:41:39.398Z,96205.09
2018-01-03T23:44:06.944Z,96199.81
2018-01-03T23:46:34.558Z,96188.66
2018-01-03T23:49:02.058Z,96207.34
2018-01-03T23:51:29.843Z,96198.93
2018-01-03T23:53:57.427Z,96209.77
2018-01-03T23:56:24.958Z,96195.28
2018-01-03T23:58:52.720Z,96204.95
